createdAt,value
2023-01-17T00:02:33.459Z,94709.53
2023-01-17T00:05:54.348Z,94711.94
2023-01-17T00:09:15.106Z,94714.94
2023-01-17T00:12:18.077Z,94736.06
2023-01-17T00:15:23.940Z,94739.19
2023-01-17T00:18:25.843Z,94719.94
2023-01-17T00:21:46.717Z,94711.53
2023-01-17T00:25:06.991Z,94725.78
2023-01-17T00:28:08.906Z,94725.78
2023-01-17T00:31:14.799Z,94729.00
2023-01-17T00:34:16.720Z,94746.69
2023-01-17T00:37:18.436Z,94751.09
2023-01-17T00:40:20.389Z,94766.16
2023-01-17T00:43:41.750Z,94767.84
2023-01-17T00:47:03.623Z,94784.81
2023-01-17T00:50:24.507Z,94785.63
2023-01-17T00:53:48.067Z,94794.59
2023-01-17T00:57:08.729Z,94781.44
2023-01-17T01:00:30.927Z,94788.94
2023-01-17T01:03:52.684Z,94784.34
2023-01-17T01:07:12.896Z,94790.22
2023-01-17T01:10:34.278Z,94804.53
2023-01-17T01:13:55.103Z,94805.72
2023-01-17T01:17:15.859Z,94811.94
2023-01-17T01:20:37.405Z,94824.56
2023-01-17T01:23:58.236Z,94817.44
2023-01-17T01:27:19.259Z,94816.19
2023-01-17T01:30:40.145Z,94833.09
2023-01-17T01:33:42.123Z,94840.78
2023-01-17T01:36:45.342Z,94835.59
2023-01-17T01:39:47.324Z,94842.75
2023-01-17T01:42:51.208Z,94852.72
2023-01-17T01:45:57.850Z,94851.56
2023-01-17T01:49:03.418Z,94849.03
2023-01-17T01:52:09.055Z,94860.28
2023-01-17T01:55:16.646Z,94871.94
2023-01-17T01:58:22.349Z,94861.63
2023-01-17T02:01:24.617Z,94867.63
2023-01-17T02:04:28.479Z,94879.59
2023-01-17T02:07:36.701Z,94876.94
2023-01-17T02:10:40.871Z,94877.19
2023-01-17T02:13:43.428Z,94891.03
2023-01-17T02:16:58.021Z,94878.66
2023-01-17T02:20:28.661Z,94875.06
2023-01-17T02:24:08.430Z,94877.59
2023-01-17T02:27:24.716Z,94880.09
2023-01-17T02:30:36.382Z,94877.38
2023-01-17T02:33:45.730Z,94865.16
2023-01-17T02:36:52.891Z,94865.16
2023-01-17T02:40:02.821Z,94868.63
2023-01-17T02:43:10.639Z,94857.63
2023-01-17T02:46:13.997Z,94873.19
2023-01-17T02:49:17.724Z,94865.41
2023-01-17T02:52:34.313Z,94877.38
2023-01-17T02:55:46.605Z,94875.69
2023-01-17T02:59:04.920Z,94873.28
2023-01-17T03:02:21.024Z,94880.34
2023-01-17T03:05:28.391Z,94882.31
2023-01-17T03:08:31.082Z,94882.78
2023-01-17T03:11:33.089Z,94906.81
2023-01-17T03:14:35.003Z,94883.72
2023-01-17T03:17:40.984Z,94911.13
2023-01-17T03:20:42.944Z,94919.97
2023-01-17T03:23:44.964Z,94926.94
2023-01-17T03:26:48.408Z,94957.50
2023-01-17T03:29:50.575Z,94943.97
2023-01-17T03:32:53.839Z,94965.50
2023-01-17T03:35:58.172Z,94953.75
2023-01-17T03:39:00.200Z,94967.28
2023-01-17T03:42:02.198Z,94967.53
2023-01-17T03:45:04.793Z,94972.34
2023-01-17T03:48:08.095Z,94976.47
2023-01-17T03:51:10.154Z,94986.13
2023-01-17T03:54:12.295Z,94981.06
2023-01-17T03:57:14.252Z,95006.22
2023-01-17T04:00:17.181Z,94981.63
2023-01-17T04:03:20.703Z,94992.63
2023-01-17T04:06:22.660Z,95002.75
2023-01-17T04:09:24.729Z,95002.94
2023-01-17T04:12:26.835Z,95000.00
2023-01-17T04:15:29.064Z,95020.81
2023-01-17T04:18:32.574Z,95007.69
2023-01-17T04:21:34.744Z,95016.06
2023-01-17T04:24:36.561Z,95037.53
2023-01-17T04:27:38.467Z,95043.91
2023-01-17T04:30:40.662Z,95040.38
2023-01-17T04:33:43.683Z,95040.38
2023-01-17T04:36:45.679Z,95058.00
2023-01-17T04:39:47.547Z,95048.09
2023-01-17T04:42:49.392Z,95060.41
2023-01-17T04:45:55.302Z,95075.03
2023-01-17T04:49:00.515Z,95091.84
2023-01-17T04:52:02.350Z,95096.97
2023-01-17T04:55:04.766Z,95098.41
2023-01-17T04:58:06.757Z,95115.00
2023-01-17T05:01:09.922Z,95126.84
2023-01-17T05:04:13.460Z,95117.63
2023-01-17T05:07:16.041Z,95132.22
2023-01-17T05:10:18.168Z,95156.00
2023-01-17T05:13:20.248Z,95162.66
2023-01-17T05:16:22.318Z,95153.16
2023-01-17T05:19:26.754Z,95170.13
2023-01-17T05:22:28.688Z,95176.38
2023-01-17T05:25:32.066Z,95185.28
2023-01-17T05:28:34.107Z,95192.22
2023-01-17T05:31:36.321Z,95205.44
2023-01-17T05:34:39.385Z,95195.31
2023-01-17T05:37:41.372Z,95205.53
2023-01-17T05:40:43.494Z,95217.53
2023-01-17T05:43:45.615Z,95215.94
2023-01-17T05:46:47.411Z,95226.13
2023-01-17T05:49:50.637Z,95231.38
2023-01-17T05:52:54.276Z,95241.69
2023-01-17T05:55:56.210Z,95244.50
2023-01-17T05:58:58.523Z,95252.16
2023-01-17T06:02:00.147Z,95264.34
2023-01-17T06:05:04.529Z,95257.06
2023-01-17T06:08:06.794Z,95283.00
2023-01-17T06:11:08.548Z,95280.09
2023-01-17T06:14:11.518Z,95289.72
2023-01-17T06:17:13.530Z,95288.16
2023-01-17T06:20:17.466Z,95289.81
2023-01-17T06:23:19.492Z,95306.59
2023-01-17T06:26:21.536Z,95296.41
2023-01-17T06:29:23.659Z,95309.41
2023-01-17T06:35:28.928Z,95297.50
2023-01-17T06:38:30.922Z,95310.78
2023-01-17T06:41:33.451Z,95320.25
2023-01-17T06:44:35.486Z,95319.41
2023-01-17T06:47:38.448Z,95320.44
2023-01-17T06:50:43.064Z,95332.81
2023-01-17T06:53:45.740Z,95324.34
2023-01-17T06:56:47.624Z,95335.97
2023-01-17T06:59:51.000Z,95343.94
2023-01-17T07:02:53.113Z,95344.97
2023-01-17T07:05:56.453Z,95348.63
2023-01-17T07:08:59.105Z,95364.16
2023-01-17T07:12:02.084Z,95366.41
2023-01-17T07:15:05.107Z,95353.94
2023-01-17T07:18:07.934Z,95366.13
2023-01-17T07:21:14.531Z,95380.84
2023-01-17T07:24:16.423Z,95386.19
2023-01-17T07:27:18.607Z,95392.19
2023-01-17T07:30:20.441Z,95404.16
2023-01-17T07:33:22.345Z,95399.75
2023-01-17T07:36:26.022Z,95398.59
2023-01-17T07:39:28.216Z,95404.63
2023-01-17T07:42:30.124Z,95418.22
2023-01-17T07:45:32.117Z,95425.41
2023-01-17T07:48:34.337Z,95408.94
2023-01-17T07:51:38.204Z,95424.22
2023-01-17T07:54:40.239Z,95418.59
2023-01-17T07:57:42.254Z,95412.50
2023-01-17T08:00:44.958Z,95423.47
2023-01-17T08:03:50.249Z,95436.47
2023-01-17T08:06:55.038Z,95420.28
2023-01-17T08:09:57.032Z,95427.84
2023-01-17T08:12:59.134Z,95441.72
2023-01-17T08:16:03.953Z,95427.09
2023-01-17T08:19:05.864Z,95434.78
2023-01-17T08:22:09.508Z,95444.94
2023-01-17T08:25:12.660Z,95449.25
2023-01-17T08:28:15.892Z,95449.03
2023-01-17T08:31:19.879Z,95461.63
2023-01-17T08:34:22.506Z,95470.34
2023-01-17T08:37:25.965Z,95483.25
2023-01-17T08:40:28.057Z,95485.88
2023-01-17T08:43:30.441Z,95492.63
2023-01-17T08:46:32.983Z,95477.00
2023-01-17T08:49:35.006Z,95470.16
2023-01-17T08:52:38.488Z,95477.00
2023-01-17T08:55:41.094Z,95475.06
2023-01-17T08:58:43.215Z,95480.53
2023-01-17T09:01:46.482Z,95477.59
2023-01-17T09:04:49.748Z,95472.81
2023-01-17T09:07:52.985Z,95476.53
2023-01-17T09:10:56.578Z,95488.19
2023-01-17T09:13:58.668Z,95476.19
2023-01-17T09:17:00.954Z,95491.41
2023-01-17T09:20:03.188Z,95469.91
2023-01-17T09:23:06.201Z,95501.75
2023-01-17T09:26:14.299Z,95495.66
2023-01-17T09:29:17.936Z,95494.56
2023-01-17T09:32:19.911Z,95512.97
2023-01-17T09:35:22.061Z,95512.47
2023-01-17T09:38:25.704Z,95516.72
2023-01-17T09:41:30.573Z,95517.38
2023-01-17T09:44:40.199Z,95517.88
2023-01-17T09:47:44.357Z,95522.44
2023-01-17T09:50:50.583Z,95513.94
2023-01-17T09:53:55.127Z,95515.44
2023-01-17T09:57:03.271Z,95526.19
2023-01-17T10:00:17.528Z,95526.84
2023-01-17T10:03:42.351Z,95513.06
2023-01-17T10:06:58.526Z,95526.22
2023-01-17T10:10:22.040Z,95511.69
2023-01-17T10:13:36.865Z,95528.75
2023-01-17T10:16:48.753Z,95517.50
2023-01-17T10:20:04.270Z,95529.84
2023-01-17T10:23:33.457Z,95522.50
2023-01-17T10:26:38.430Z,95530.28
2023-01-17T10:29:41.289Z,95526.16
2023-01-17T10:32:48.047Z,95528.09
2023-01-17T10:35:55.342Z,95517.72
2023-01-17T10:39:01.269Z,95524.13
2023-01-17T10:42:14.925Z,95531.47
2023-01-17T10:45:21.329Z,95529.88
2023-01-17T10:48:34.865Z,95528.38
2023-01-17T10:51:50.836Z,95527.28
2023-01-17T10:55:06.299Z,95538.91
2023-01-17T10:58:12.443Z,95541.44
2023-01-17T11:01:19.505Z,95531.66
2023-01-17T11:04:29.825Z,95555.25
2023-01-17T11:07:31.801Z,95546.03
2023-01-17T11:10:37.993Z,95554.13
2023-01-17T11:13:41.383Z,95564.38
2023-01-17T11:16:43.834Z,95550.03
2023-01-17T11:19:51.267Z,95544.66
2023-01-17T11:23:07.589Z,95557.69
2023-01-17T11:26:13.091Z,95563.78
2023-01-17T11:29:30.621Z,95559.56
2023-01-17T11:32:33.948Z,95549.72
2023-01-17T11:35:38.353Z,95575.28
2023-01-17T11:38:41.676Z,95571.06
2023-01-17T11:41:45.428Z,95564.88
2023-01-17T11:44:48.947Z,95563.00
2023-01-17T11:48:12.557Z,95565.41
2023-01-17T11:51:22.712Z,95565.19
2023-01-17T11:54:28.487Z,95560.03
2023-01-17T11:57:33.404Z,95573.28
2023-01-17T12:00:46.157Z,95570.56
2023-01-17T12:04:25.721Z,95565.19
2023-01-17T12:07:38.229Z,95552.13
2023-01-17T12:10:50.205Z,95556.34
2023-01-17T12:14:06.129Z,95558.03
2023-01-17T12:17:20.225Z,95564.41
2023-01-17T12:20:30.499Z,95553.50
2023-01-17T12:24:01.874Z,95570.78
2023-01-17T12:27:13.929Z,95564.19
2023-01-17T12:30:38.835Z,95558.28
2023-01-17T12:33:50.624Z,95560.81
2023-01-17T12:36:58.621Z,95555.72
2023-01-17T12:40:11.171Z,95560.88
2023-01-17T12:43:22.275Z,95565.91
2023-01-17T12:46:28.994Z,95574.63
2023-01-17T12:49:42.174Z,95571.06
2023-01-17T12:52:53.800Z,95576.50
2023-01-17T12:56:00.630Z,95578.00
2023-01-17T12:59:12.225Z,95584.63
2023-01-17T13:02:22.637Z,95582.19
2023-01-17T13:05:33.219Z,95569.47
2023-01-17T13:08:41.403Z,95568.31
2023-01-17T13:11:49.895Z,95571.13
2023-01-17T13:14:51.809Z,95573.16
2023-01-17T13:17:59.480Z,95570.81
2023-01-17T13:21:18.622Z,95579.03
2023-01-17T13:24:36.322Z,95578.34
2023-01-17T13:28:02.334Z,95580.09
2023-01-17T13:31:44.846Z,95576.00
2023-01-17T13:35:10.934Z,95584.63
2023-01-17T13:38:37.475Z,95592.00
2023-01-17T13:41:50.652Z,95593.06
2023-01-17T13:44:52.877Z,95585.66
2023-01-17T13:48:10.666Z,95594.41
2023-01-17T13:51:12.869Z,95595.56
2023-01-17T13:54:29.575Z,95596.34
2023-01-17T13:57:40.065Z,95598.97
2023-01-17T14:00:50.506Z,95593.63
2023-01-17T14:04:04.566Z,95592.78
2023-01-17T14:07:20.946Z,95597.63
2023-01-17T14:10:30.758Z,95597.84
2023-01-17T14:13:35.594Z,95598.13
2023-01-17T14:16:37.656Z,95586.47
2023-01-17T14:19:39.526Z,95597.84
2023-01-17T14:22:48.452Z,95596.16
2023-01-17T14:25:53.118Z,95590.88
2023-01-17T14:28:58.121Z,95604.50
2023-01-17T14:32:02.184Z,95595.31
2023-01-17T14:35:05.539Z,95591.63
2023-01-17T14:38:18.891Z,95600.47
2023-01-17T14:41:24.702Z,95591.44
2023-01-17T14:44:26.817Z,95597.53
2023-01-17T14:47:31.829Z,95588.06
2023-01-17T14:50:38.099Z,95591.81
2023-01-17T14:53:40.183Z,95601.00
2023-01-17T14:56:43.720Z,95589.00
2023-01-17T14:59:46.359Z,95579.13
2023-01-17T15:02:50.682Z,95592.28
2023-01-17T15:05:55.232Z,95581.53
2023-01-17T15:08:57.570Z,95580.22
2023-01-17T15:12:02.796Z,95588.94
2023-01-17T15:15:26.128Z,95597.09
2023-01-17T15:18:30.037Z,95581.56
2023-01-17T15:21:35.457Z,95589.63
2023-01-17T15:24:43.442Z,95588.47
2023-01-17T15:27:47.282Z,95611.91
2023-01-17T15:31:08.821Z,95594.16
2023-01-17T15:34:25.009Z,95616.19
2023-01-17T15:37:32.665Z,95622.78
2023-01-17T15:40:43.652Z,95610.25
2023-01-17T15:43:47.090Z,95630.41
2023-01-17T15:46:49.829Z,95635.16
2023-01-17T15:49:52.953Z,95646.75
2023-01-17T15:52:57.324Z,95651.47
2023-01-17T15:56:00.391Z,95647.34
2023-01-17T15:59:30.745Z,95651.84
2023-01-17T16:02:42.933Z,95631.91
2023-01-17T16:05:46.017Z,95637.75
2023-01-17T16:08:52.330Z,95635.13
2023-01-17T16:11:54.243Z,95629.88
2023-01-17T16:15:11.181Z,95637.00
2023-01-17T16:18:16.774Z,95621.75
2023-01-17T16:21:29.850Z,95627.78
2023-01-17T16:24:32.293Z,95634.53
2023-01-17T16:27:34.245Z,95644.50
2023-01-17T16:30:38.629Z,95645.91
2023-01-17T16:33:42.217Z,95652.00
2023-01-17T16:36:44.276Z,95654.03
2023-01-17T16:39:46.672Z,95663.97
2023-01-17T16:42:48.977Z,95653.97
2023-01-17T16:45:54.096Z,95675.69
2023-01-17T16:48:56.268Z,95660.53
2023-01-17T16:51:59.284Z,95670.94
2023-01-17T16:55:01.589Z,95660.03
2023-01-17T16:58:05.951Z,95674.09
2023-01-17T17:01:17.836Z,95667.50
2023-01-17T17:04:20.326Z,95671.16
2023-01-17T17:07:22.969Z,95658.72
2023-01-17T17:10:25.385Z,95668.28
2023-01-17T17:13:27.331Z,95676.78
2023-01-17T17:16:30.876Z,95677.38
2023-01-17T17:19:33.771Z,95679.56
2023-01-17T17:22:35.850Z,95674.91
2023-01-17T17:25:37.927Z,95678.00
2023-01-17T17:28:39.996Z,95675.84
2023-01-17T17:31:43.807Z,95658.38
2023-01-17T17:34:46.203Z,95652.00
2023-01-17T17:37:48.097Z,95649.09
2023-01-17T17:40:50.034Z,95667.75
2023-01-17T17:43:53.392Z,95662.50
2023-01-17T17:46:56.942Z,95665.13
2023-01-17T17:49:59.532Z,95669.69
2023-01-17T17:53:01.468Z,95658.53
2023-01-17T17:56:04.558Z,95676.41
2023-01-17T17:59:09.068Z,95683.66
2023-01-17T18:02:12.711Z,95682.25
2023-01-17T18:05:15.142Z,95684.75
2023-01-17T18:08:17.196Z,95682.38
2023-01-17T18:11:21.536Z,95687.78
2023-01-17T18:14:24.762Z,95698.59
2023-01-17T18:17:28.402Z,95701.59
2023-01-17T18:20:30.654Z,95705.44
2023-01-17T18:23:32.532Z,95719.28
2023-01-17T18:26:36.296Z,95725.63
2023-01-17T18:29:38.959Z,95718.28
2023-01-17T18:32:43.099Z,95722.69
2023-01-17T18:35:53.378Z,95709.25
2023-01-17T18:38:55.901Z,95709.34
2023-01-17T18:41:59.498Z,95714.50
2023-01-17T18:45:01.611Z,95721.59
2023-01-17T18:48:05.698Z,95724.19
2023-01-17T18:51:10.440Z,95713.09
2023-01-17T18:54:13.227Z,95726.09
2023-01-17T18:57:15.245Z,95727.03
2023-01-17T19:00:18.764Z,95738.56
2023-01-17T19:03:28.973Z,95735.19
2023-01-17T19:10:38.893Z,95739.63
2023-01-17T19:13:42.036Z,95746.22
2023-01-17T19:16:44.585Z,95742.97
2023-01-17T19:19:52.669Z,95734.00
2023-01-17T19:23:02.761Z,95746.84
2023-01-17T19:26:08.469Z,95763.75
2023-01-17T19:29:10.926Z,95753.53
2023-01-17T19:32:13.148Z,95769.16
2023-01-17T19:38:55.229Z,95765.88
2023-01-17T19:42:05.958Z,95767.78
2023-01-17T19:45:09.791Z,95779.75
2023-01-17T19:51:39.900Z,95774.53
2023-01-17T19:54:43.389Z,95789.84
2023-01-17T19:57:45.493Z,95790.66
2023-01-17T20:04:18.171Z,95782.72
2023-01-17T20:07:20.739Z,95797.50
2023-01-17T20:10:25.296Z,95788.88
2023-01-17T20:13:27.581Z,95792.53
2023-01-17T20:16:31.318Z,95790.28
2023-01-17T20:19:33.540Z,95799.13
2023-01-17T20:22:35.417Z,95800.59
2023-01-17T20:25:39.129Z,95794.00
2023-01-17T20:28:43.230Z,95795.06
2023-01-17T20:31:46.319Z,95801.16
2023-01-17T20:34:48.540Z,95808.16
2023-01-17T20:37:51.683Z,95807.16
2023-01-17T20:40:55.947Z,95788.69
2023-01-17T20:43:59.826Z,95802.47
2023-01-17T20:47:02.059Z,95812.16
2023-01-17T20:50:05.498Z,95808.81
2023-01-17T20:53:07.855Z,95819.16
2023-01-17T20:56:13.738Z,95819.41
2023-01-17T20:59:17.644Z,95816.94
2023-01-17T21:02:20.941Z,95816.63
2023-01-17T21:05:23.197Z,95811.44
2023-01-17T21:08:25.718Z,95827.00
2023-01-17T21:11:29.405Z,95819.41
2023-01-17T21:14:31.802Z,95819.56
2023-01-17T21:17:41.239Z,95808.72
2023-01-17T21:20:44.335Z,95803.72
2023-01-17T21:23:46.492Z,95805.63
2023-01-17T21:26:51.598Z,95817.72
2023-01-17T21:29:56.224Z,95814.50
2023-01-17T21:33:00.208Z,95802.19
2023-01-17T21:36:08.749Z,95821.09
2023-01-17T21:39:13.675Z,95813.28
2023-01-17T21:42:21.471Z,95816.50
2023-01-17T21:45:43.446Z,95827.09
2023-01-17T21:48:45.924Z,95830.56
2023-01-17T21:51:53.534Z,95840.88
2023-01-17T21:55:14.339Z,95847.41
2023-01-17T21:58:39.376Z,95849.94
2023-01-17T22:01:41.562Z,95856.16
2023-01-17T22:04:43.529Z,95861.47
2023-01-17T22:08:04.766Z,95850.78
2023-01-17T22:11:10.861Z,95865.44
2023-01-17T22:14:14.353Z,95868.75
2023-01-17T22:17:16.740Z,95852.69
2023-01-17T22:20:21.014Z,95862.28
2023-01-17T22:23:23.477Z,95872.53
2023-01-17T22:26:27.240Z,95868.28
2023-01-17T22:29:34.119Z,95872.50
2023-01-17T22:32:36.414Z,95888.94
2023-01-17T22:35:38.577Z,95886.34
2023-01-17T22:38:41.906Z,95887.34
2023-01-17T22:41:44.192Z,95874.28
2023-01-17T22:44:48.105Z,95893.00
2023-01-17T22:47:50.344Z,95883.56
2023-01-17T22:50:56.876Z,95878.59
2023-01-17T22:54:01.051Z,95894.78
2023-01-17T22:57:04.086Z,95890.38
2023-01-17T23:00:14.567Z,95892.06
2023-01-17T23:03:16.883Z,95897.28
2023-01-17T23:06:22.434Z,95899.84
2023-01-17T23:09:25.048Z,95890.53
2023-01-17T23:12:27.221Z,95907.84
2023-01-17T23:15:50.606Z,95908.66
2023-01-17T23:19:11.794Z,95908.66
2023-01-17T23:22:15.884Z,95910.47
2023-01-17T23:25:18.611Z,95902.94
2023-01-17T23:28:21.293Z,95906.28
2023-01-17T23:31:24.848Z,95909.03
2023-01-17T23:34:26.783Z,95897.97
2023-01-17T23:37:48.917Z,95898.81
2023-01-17T23:41:10.269Z,95907.19
2023-01-17T23:44:12.435Z,95909.81
2023-01-17T23:47:16.376Z,95907.97
2023-01-17T23:50:18.809Z,95901.97
2023-01-17T23:53:24.530Z,95892.56
2023-01-17T23:56:26.831Z,95890.84
2023-01-17T23:59:29.275Z,95873.88
